sensor_id;sensor_type;location;lat;lon;timestamp;P1;P4;P2;P0;N10;N4;N25;N1;N05;TS
43196;SPS30;28816;49.852;18.282;2024-03-02T00:03:17;75.610000;;74.390000;69.520000;;;;;;
43196;SPS30;28816;49.852;18.282;2024-03-02T00:08:19;78.900000;;77.580000;71.860000;;;;;;
43196;SPS30;28816;49.852;18.282;2024-03-02T00:13:23;75.290000;;74.250000;69.430000;;;;;;
43196;SPS30;28816;49.852;18.282;2024-03-02T00:18:25;75.980000;;74.590000;68.740000;;;;;;
43196;SPS30;28816;49.852;18.282;2024-03-02T00:23:31;75.750000;;75.260000;69.920000;;;;;;
43196;SPS30;28816;49.852;18.282;2024-03-02T00:28:34;75.470000;;74.640000;69.460000;;;;;;
43196;SPS30;28816;49.852;18.282;2024-03-02T00:33:36;77.060000;;76.120000;70.680000;;;;;;
43196;SPS30;28816;49.852;18.282;2024-03-02T00:38:40;76.530000;;75.090000;70.120000;;;;;;
43196;SPS30;28816;49.852;18.282;2024-03-02T00:43:44;74.310000;;73.210000;68.290000;;;;;;
43196;SPS30;28816;49.852;18.282;2024-03-02T00:48:51;75.170000;;73.730000;68.480000;;;;;;
43196;SPS30;28816;49.852;18.282;2024-03-02T00:53:54;77.840000;;76.110000;70.300000;;;;;;
43196;SPS30;28816;49.852;18.282;2024-03-02T00:58:58;77.550000;;75.980000;70.230000;;;;;;
43196;SPS30;28816;49.852;18.282;2024-03-02T01:04:00;73.360000;;71.470000;65.740000;;;;;;
43196;SPS30;28816;49.852;18.282;2024-03-02T01:09:02;76.480000;;75.740000;70.090000;;;;;;
43196;SPS30;28816;49.852;18.282;2024-03-02T01:14:04;76.040000;;74.300000;68.210000;;;;;;
43196;SPS30;28816;49.852;18.282;2024-03-02T01:19:06;73.640000;;72.430000;67.410000;;;;;;
43196;SPS30;28816;49.852;18.282;2024-03-02T01:24:07;73.320000;;72.340000;67.590000;;;;;;
43196;SPS30;28816;49.852;18.282;2024-03-02T01:29:09;76.270000;;74.590000;69.260000;;;;;;
43196;SPS30;28816;49.852;18.282;2024-03-02T01:34:11;72.720000;;71.410000;66.680000;;;;;;
43196;SPS30;28816;49.852;18.282;2024-03-02T01:39:13;72.200000;;70.920000;65.560000;;;;;;
43196;SPS30;28816;49.852;18.282;2024-03-02T01:44:15;73.960000;;72.640000;67.320000;;;;;;
43196;SPS30;28816;49.852;18.282;2024-03-02T01:49:17;69.990000;;69.030000;64.150000;;;;;;
43196;SPS30;28816;49.852;18.282;2024-03-02T01:54:19;69.540000;;68.790000;64.300000;;;;;;
43196;SPS30;28816;49.852;18.282;2024-03-02T01:59:21;67.500000;;66.370000;61.810000;;;;;;
43196;SPS30;28816;49.852;18.282;2024-03-02T02:04:23;65.830000;;65.050000;60.200000;;;;;;
43196;SPS30;28816;49.852;18.282;2024-03-02T02:09:24;66.880000;;65.840000;61.600000;;;;;;
43196;SPS30;28816;49.852;18.282;2024-03-02T02:14:26;68.890000;;68.040000;63.530000;;;;;;
43196;SPS30;28816;49.852;18.282;2024-03-02T02:19:28;68.900000;;67.910000;62.760000;;;;;;
43196;SPS30;28816;49.852;18.282;2024-03-02T02:24:30;66.260000;;65.470000;61.470000;;;;;;
43196;SPS30;28816;49.852;18.282;2024-03-02T02:29:32;69.110000;;67.730000;63.130000;;;;;;
43196;SPS30;28816;49.852;18.282;2024-03-02T02:34:34;67.030000;;66.200000;61.360000;;;;;;
43196;SPS30;28816;49.852;18.282;2024-03-02T02:39:36;65.880000;;64.670000;59.980000;;;;;;
43196;SPS30;28816;49.852;18.282;2024-03-02T02:44:38;70.540000;;68.570000;63.810000;;;;;;
43196;SPS30;28816;49.852;18.282;2024-03-02T02:49:40;65.730000;;65.510000;61.560000;;;;;;
43196;SPS30;28816;49.852;18.282;2024-03-02T02:54:42;70.020000;;69.090000;64.230000;;;;;;
43196;SPS30;28816;49.852;18.282;2024-03-02T02:59:44;67.510000;;66.790000;61.660000;;;;;;
43196;SPS30;28816;49.852;18.282;2024-03-02T03:04:46;67.600000;;65.700000;60.340000;;;;;;
43196;SPS30;28816;49.852;18.282;2024-03-02T03:09:48;64.030000;;62.910000;58.790000;;;;;;
43196;SPS30;28816;49.852;18.282;2024-03-02T03:14:50;67.110000;;65.950000;61.590000;;;;;;
43196;SPS30;28816;49.852;18.282;2024-03-02T03:19:53;67.710000;;66.660000;61.990000;;;;;;
43196;SPS30;28816;49.852;18.282;2024-03-02T03:24:55;67.560000;;66.550000;62.090000;;;;;;
43196;SPS30;28816;49.852;18.282;2024-03-02T03:29:57;69.980000;;69.080000;64.300000;;;;;;
43196;SPS30;28816;49.852;18.282;2024-03-02T03:34:59;69.190000;;67.770000;62.160000;;;;;;
43196;SPS30;28816;49.852;18.282;2024-03-02T03:40:01;71.450000;;69.990000;64.990000;;;;;;
43196;SPS30;28816;49.852;18.282;2024-03-02T03:45:03;68.790000;;67.390000;62.980000;;;;;;
43196;SPS30;28816;49.852;18.282;2024-03-02T03:50:06;71.690000;;70.470000;65.080000;;;;;;
43196;SPS30;28816;49.852;18.282;2024-03-02T03:55:09;72.280000;;71.000000;66.020000;;;;;;
43196;SPS30;28816;49.852;18.282;2024-03-02T04:00:11;72.020000;;69.760000;64.290000;;;;;;
43196;SPS30;28816;49.852;18.282;2024-03-02T04:05:13;69.600000;;68.270000;63.520000;;;;;;
43196;SPS30;28816;49.852;18.282;2024-03-02T04:10:16;70.860000;;68.680000;63.180000;;;;;;
43196;SPS30;28816;49.852;18.282;2024-03-02T04:15:18;68.980000;;67.740000;62.650000;;;;;;
43196;SPS30;28816;49.852;18.282;2024-03-02T04:20:20;69.440000;;68.460000;63.230000;;;;;;
43196;SPS30;28816;49.852;18.282;2024-03-02T04:25:21;69.730000;;68.640000;64.500000;;;;;;
43196;SPS30;28816;49.852;18.282;2024-03-02T04:30:23;67.100000;;66.520000;61.960000;;;;;;
43196;SPS30;28816;49.852;18.282;2024-03-02T04:35:25;65.650000;;64.630000;59.760000;;;;;;
43196;SPS30;28816;49.852;18.282;2024-03-02T04:40:27;64.270000;;63.480000;59.610000;;;;;;
43196;SPS30;28816;49.852;18.282;2024-03-02T04:45:28;58.380000;;58.080000;54.300000;;;;;;
43196;SPS30;28816;49.852;18.282;2024-03-02T04:50:30;62.060000;;61.150000;56.770000;;;;;;
43196;SPS30;28816;49.852;18.282;2024-03-02T04:55:32;63.960000;;62.900000;58.910000;;;;;;
43196;SPS30;28816;49.852;18.282;2024-03-02T05:00:34;65.690000;;64.610000;60.140000;;;;;;
43196;SPS30;28816;49.852;18.282;2024-03-02T05:05:36;65.290000;;64.610000;59.840000;;;;;;
43196;SPS30;28816;49.852;18.282;2024-03-02T05:10:38;107.850000;;105.090000;95.780000;;;;;;
43196;SPS30;28816;49.852;18.282;2024-03-02T05:15:40;132.210000;;129.460000;119.420000;;;;;;
43196;SPS30;28816;49.852;18.282;2024-03-02T05:20:42;152.540000;;150.550000;140.570000;;;;;;
43196;SPS30;28816;49.852;18.282;2024-03-02T05:25:44;138.500000;;137.690000;128.750000;;;;;;
43196;SPS30;28816;49.852;18.282;2024-03-02T05:30:46;120.260000;;118.240000;109.950000;;;;;;
43196;SPS30;28816;49.852;18.282;2024-03-02T05:35:48;77.360000;;76.030000;70.730000;;;;;;
43196;SPS30;28816;49.852;18.282;2024-03-02T05:40:50;68.890000;;67.400000;62.840000;;;;;;
43196;SPS30;28816;49.852;18.282;2024-03-02T05:45:52;67.090000;;65.900000;62.070000;;;;;;
43196;SPS30;28816;49.852;18.282;2024-03-02T05:50:54;67.900000;;66.970000;62.180000;;;;;;
43196;SPS30;28816;49.852;18.282;2024-03-02T05:55:56;60.930000;;60.260000;56.160000;;;;;;
43196;SPS30;28816;49.852;18.282;2024-03-02T06:00:58;73.520000;;72.820000;67.490000;;;;;;
43196;SPS30;28816;49.852;18.282;2024-03-02T06:06:00;84.270000;;82.930000;76.830000;;;;;;
43196;SPS30;28816;49.852;18.282;2024-03-02T06:11:02;70.120000;;69.440000;64.490000;;;;;;
43196;SPS30;28816;49.852;18.282;2024-03-02T06:16:03;63.980000;;63.200000;59.160000;;;;;;
43196;SPS30;28816;49.852;18.282;2024-03-02T06:21:05;58.950000;;58.320000;54.240000;;;;;;
43196;SPS30;28816;49.852;18.282;2024-03-02T06:26:08;61.520000;;61.030000;56.930000;;;;;;
43196;SPS30;28816;49.852;18.282;2024-03-02T06:31:10;66.250000;;65.160000;60.550000;;;;;;
43196;SPS30;28816;49.852;18.282;2024-03-02T06:36:12;72.150000;;70.490000;65.480000;;;;;;
43196;SPS30;28816;49.852;18.282;2024-03-02T06:41:14;75.800000;;73.980000;68.530000;;;;;;
43196;SPS30;28816;49.852;18.282;2024-03-02T06:46:16;74.690000;;72.760000;66.890000;;;;;;
43196;SPS30;28816;49.852;18.282;2024-03-02T06:51:18;75.360000;;74.140000;68.510000;;;;;;
43196;SPS30;28816;49.852;18.282;2024-03-02T06:56:20;72.350000;;70.250000;65.070000;;;;;;
43196;SPS30;28816;49.852;18.282;2024-03-02T07:01:22;72.270000;;70.760000;65.840000;;;;;;
43196;SPS30;28816;49.852;18.282;2024-03-02T07:06:24;71.960000;;70.230000;64.720000;;;;;;
43196;SPS30;28816;49.852;18.282;2024-03-02T07:11:25;73.550000;;72.010000;66.620000;;;;;;
43196;SPS30;28816;49.852;18.282;2024-03-02T07:16:27;81.660000;;79.420000;73.140000;;;;;;
43196;SPS30;28816;49.852;18.282;2024-03-02T07:21:29;81.380000;;79.880000;74.390000;;;;;;
43196;SPS30;28816;49.852;18.282;2024-03-02T07:26:32;82.230000;;80.720000;74.510000;;;;;;
43196;SPS30;28816;49.852;18.282;2024-03-02T07:31:34;82.720000;;81.270000;76.030000;;;;;;
43196;SPS30;28816;49.852;18.282;2024-03-02T07:36:36;79.280000;;77.920000;72.660000;;;;;;
43196;SPS30;28816;49.852;18.282;2024-03-02T07:41:38;73.260000;;72.550000;67.490000;;;;;;
43196;SPS30;28816;49.852;18.282;2024-03-02T07:46:40;76.490000;;75.400000;70.120000;;;;;;
43196;SPS30;28816;49.852;18.282;2024-03-02T07:51:42;70.650000;;69.790000;64.850000;;;;;;
43196;SPS30;28816;49.852;18.282;2024-03-02T07:56:44;70.200000;;69.360000;64.560000;;;;;;
43196;SPS30;28816;49.852;18.282;2024-03-02T08:01:47;66.980000;;66.320000;62.100000;;;;;;
43196;SPS30;28816;49.852;18.282;2024-03-02T08:06:50;67.200000;;66.100000;61.780000;;;;;;
43196;SPS30;28816;49.852;18.282;2024-03-02T08:11:51;65.620000;;65.210000;61.310000;;;;;;
43196;SPS30;28816;49.852;18.282;2024-03-02T08:16:53;66.320000;;65.780000;61.500000;;;;;;
43196;SPS30;28816;49.852;18.282;2024-03-02T08:21:55;67.650000;;66.950000;63.120000;;;;;;
43196;SPS30;28816;49.852;18.282;2024-03-02T08:26:57;67.480000;;67.010000;63.360000;;;;;;
43196;SPS30;28816;49.852;18.282;2024-03-02T08:32:00;70.300000;;69.620000;65.520000;;;;;;
43196;SPS30;28816;49.852;18.282;2024-03-02T08:37:02;72.660000;;71.930000;66.690000;;;;;;
43196;SPS30;28816;49.852;18.282;2024-03-02T08:42:04;73.130000;;72.100000;67.270000;;;;;;
43196;SPS30;28816;49.852;18.282;2024-03-02T08:47:06;70.670000;;70.130000;65.560000;;;;;;
43196;SPS30;28816;49.852;18.282;2024-03-02T08:52:09;70.010000;;69.290000;65.130000;;;;;;
43196;SPS30;28816;49.852;18.282;2024-03-02T08:57:10;68.020000;;67.390000;63.200000;;;;;;
43196;SPS30;28816;49.852;18.282;2024-03-02T09:02:12;66.520000;;66.000000;61.700000;;;;;;
43196;SPS30;28816;49.852;18.282;2024-03-02T09:07:14;66.030000;;65.580000;61.800000;;;;;;
43196;SPS30;28816;49.852;18.282;2024-03-02T09:12:16;80.730000;;80.640000;75.990000;;;;;;
43196;SPS30;28816;49.852;18.282;2024-03-02T09:17:20;61.620000;;61.580000;57.930000;;;;;;
43196;SPS30;28816;49.852;18.282;2024-03-02T09:22:22;61.330000;;60.780000;56.950000;;;;;;
43196;SPS30;28816;49.852;18.282;2024-03-02T09:27:24;58.070000;;57.600000;54.200000;;;;;;
43196;SPS30;28816;49.852;18.282;2024-03-02T09:32:26;55.390000;;55.450000;51.840000;;;;;;
43196;SPS30;28816;49.852;18.282;2024-03-02T09:37:27;53.990000;;53.940000;51.040000;;;;;;
43196;SPS30;28816;49.852;18.282;2024-03-02T09:42:29;57.370000;;57.040000;53.970000;;;;;;
43196;SPS30;28816;49.852;18.282;2024-03-02T09:47:31;53.550000;;53.360000;50.090000;;;;;;
43196;SPS30;28816;49.852;18.282;2024-03-02T09:52:32;53.820000;;53.590000;50.210000;;;;;;
43196;SPS30;28816;49.852;18.282;2024-03-02T09:57:35;53.470000;;53.330000;50.360000;;;;;;
43196;SPS30;28816;49.852;18.282;2024-03-02T10:02:38;52.340000;;51.730000;48.660000;;;;;;
43196;SPS30;28816;49.852;18.282;2024-03-02T10:07:40;53.040000;;52.960000;50.110000;;;;;;
43196;SPS30;28816;49.852;18.282;2024-03-02T10:12:58;53.770000;;53.550000;51.020000;;;;;;
43196;SPS30;28816;49.852;18.282;2024-03-02T10:18:03;49.410000;;49.370000;46.410000;;;;;;
43196;SPS30;28816;49.852;18.282;2024-03-02T10:23:08;49.330000;;49.410000;46.750000;;;;;;
43196;SPS30;28816;49.852;18.282;2024-03-02T10:28:11;52.110000;;51.990000;49.120000;;;;;;
43196;SPS30;28816;49.852;18.282;2024-03-02T10:33:13;54.890000;;54.470000;51.350000;;;;;;
43196;SPS30;28816;49.852;18.282;2024-03-02T10:49:38;37.000000;;36.580000;34.660000;;;;;;
43196;SPS30;28816;49.852;18.282;2024-03-02T10:54:42;35.740000;;35.090000;32.980000;;;;;;
43196;SPS30;28816;49.852;18.282;2024-03-02T10:59:43;30.950000;;30.760000;29.050000;;;;;;
43196;SPS30;28816;49.852;18.282;2024-03-02T11:04:50;27.960000;;27.710000;26.330000;;;;;;
43196;SPS30;28816;49.852;18.282;2024-03-02T11:09:54;26.820000;;26.800000;25.480000;;;;;;
43196;SPS30;28816;49.852;18.282;2024-03-02T11:14:59;25.660000;;25.760000;24.230000;;;;;;
43196;SPS30;28816;49.852;18.282;2024-03-02T11:20:04;26.370000;;26.330000;24.980000;;;;;;
43196;SPS30;28816;49.852;18.282;2024-03-02T11:25:07;25.160000;;25.120000;23.820000;;;;;;
43196;SPS30;28816;49.852;18.282;2024-03-02T11:30:22;26.010000;;26.200000;24.440000;;;;;;
43196;SPS30;28816;49.852;18.282;2024-03-02T11:35:48;20.540000;;20.500000;19.270000;;;;;;
43196;SPS30;28816;49.852;18.282;2024-03-02T11:40:51;19.200000;;19.150000;18.020000;;;;;;
43196;SPS30;28816;49.852;18.282;2024-03-02T11:45:54;18.970000;;19.070000;17.890000;;;;;;
43196;SPS30;28816;49.852;18.282;2024-03-02T11:50:57;15.550000;;15.590000;14.640000;;;;;;
43196;SPS30;28816;49.852;18.282;2024-03-02T11:56:00;13.340000;;13.240000;12.690000;;;;;;
43196;SPS30;28816;49.852;18.282;2024-03-02T12:01:02;10.740000;;10.800000;10.080000;;;;;;
43196;SPS30;28816;49.852;18.282;2024-03-02T12:06:05;7.500000;;7.470000;7.110000;;;;;;
43196;SPS30;28816;49.852;18.282;2024-03-02T12:11:06;7.760000;;7.810000;7.330000;;;;;;
43196;SPS30;28816;49.852;18.282;2024-03-02T12:16:12;8.250000;;8.230000;7.860000;;;;;;
43196;SPS30;28816;49.852;18.282;2024-03-02T12:21:22;7.930000;;7.890000;7.550000;;;;;;
43196;SPS30;28816;49.852;18.282;2024-03-02T12:26:24;7.910000;;7.880000;7.500000;;;;;;
43196;SPS30;28816;49.852;18.282;2024-03-02T12:31:26;8.140000;;8.150000;7.670000;;;;;;
43196;SPS30;28816;49.852;18.282;2024-03-02T12:36:29;10.340000;;10.320000;9.780000;;;;;;
43196;SPS30;28816;49.852;18.282;2024-03-02T12:41:36;7.530000;;7.500000;7.150000;;;;;;
43196;SPS30;28816;49.852;18.282;2024-03-02T12:46:39;7.310000;;7.370000;6.830000;;;;;;
43196;SPS30;28816;49.852;18.282;2024-03-02T12:51:40;6.700000;;6.690000;6.350000;;;;;;
43196;SPS30;28816;49.852;18.282;2024-03-02T12:56:43;6.630000;;6.550000;6.310000;;;;;;
43196;SPS30;28816;49.852;18.282;2024-03-02T13:01:45;7.000000;;7.030000;6.640000;;;;;;
43196;SPS30;28816;49.852;18.282;2024-03-02T13:06:51;6.500000;;6.520000;6.130000;;;;;;
43196;SPS30;28816;49.852;18.282;2024-03-02T13:11:53;7.110000;;7.070000;6.710000;;;;;;
43196;SPS30;28816;49.852;18.282;2024-03-02T13:16:55;6.860000;;6.900000;6.400000;;;;;;
43196;SPS30;28816;49.852;18.282;2024-03-02T13:21:57;6.640000;;6.600000;6.250000;;;;;;
43196;SPS30;28816;49.852;18.282;2024-03-02T13:26:59;7.850000;;7.830000;7.450000;;;;;;
43196;SPS30;28816;49.852;18.282;2024-03-02T13:32:01;7.540000;;7.530000;7.120000;;;;;;
43196;SPS30;28816;49.852;18.282;2024-03-02T13:37:03;6.640000;;6.670000;6.230000;;;;;;
43196;SPS30;28816;49.852;18.282;2024-03-02T13:42:05;7.440000;;7.430000;7.040000;;;;;;
43196;SPS30;28816;49.852;18.282;2024-03-02T13:47:07;8.260000;;8.260000;7.800000;;;;;;
43196;SPS30;28816;49.852;18.282;2024-03-02T13:52:09;8.970000;;8.940000;8.480000;;;;;;
43196;SPS30;28816;49.852;18.282;2024-03-02T13:57:12;7.280000;;7.270000;6.850000;;;;;;
43196;SPS30;28816;49.852;18.282;2024-03-02T14:02:14;8.240000;;8.270000;7.780000;;;;;;
43196;SPS30;28816;49.852;18.282;2024-03-02T14:07:16;8.120000;;8.170000;7.640000;;;;;;
43196;SPS30;28816;49.852;18.282;2024-03-02T14:12:17;7.270000;;7.260000;6.890000;;;;;;
43196;SPS30;28816;49.852;18.282;2024-03-02T14:17:19;8.100000;;8.230000;7.530000;;;;;;
43196;SPS30;28816;49.852;18.282;2024-03-02T14:22:21;9.740000;;9.800000;9.130000;;;;;;
43196;SPS30;28816;49.852;18.282;2024-03-02T14:27:23;9.460000;;9.360000;9.010000;;;;;;
43196;SPS30;28816;49.852;18.282;2024-03-02T14:32:25;10.400000;;10.400000;9.810000;;;;;;
43196;SPS30;28816;49.852;18.282;2024-03-02T14:37:26;9.410000;;9.350000;8.940000;;;;;;
43196;SPS30;28816;49.852;18.282;2024-03-02T14:42:28;10.880000;;10.840000;10.350000;;;;;;
43196;SPS30;28816;49.852;18.282;2024-03-02T14:47:30;12.060000;;12.000000;11.480000;;;;;;
43196;SPS30;28816;49.852;18.282;2024-03-02T14:52:32;13.540000;;13.390000;12.830000;;;;;;
43196;SPS30;28816;49.852;18.282;2024-03-02T14:57:34;16.680000;;16.410000;15.560000;;;;;;
43196;SPS30;28816;49.852;18.282;2024-03-02T15:02:36;18.090000;;18.010000;16.810000;;;;;;
43196;SPS30;28816;49.852;18.282;2024-03-02T15:07:38;17.710000;;17.670000;16.590000;;;;;;
43196;SPS30;28816;49.852;18.282;2024-03-02T15:12:40;19.950000;;19.930000;18.880000;;;;;;
43196;SPS30;28816;49.852;18.282;2024-03-02T15:17:42;22.330000;;22.320000;21.000000;;;;;;
43196;SPS30;28816;49.852;18.282;2024-03-02T15:22:44;22.380000;;22.350000;21.060000;;;;;;
43196;SPS30;28816;49.852;18.282;2024-03-02T15:27:46;22.690000;;22.570000;21.510000;;;;;;
43196;SPS30;28816;49.852;18.282;2024-03-02T15:32:48;26.400000;;26.260000;24.610000;;;;;;
43196;SPS30;28816;49.852;18.282;2024-03-02T15:37:50;25.040000;;24.760000;23.480000;;;;;;
43196;SPS30;28816;49.852;18.282;2024-03-02T15:42:52;24.250000;;24.380000;22.830000;;;;;;
43196;SPS30;28816;49.852;18.282;2024-03-02T15:47:54;24.750000;;24.680000;23.390000;;;;;;
43196;SPS30;28816;49.852;18.282;2024-03-02T15:52:56;24.400000;;24.350000;23.060000;;;;;;
43196;SPS30;28816;49.852;18.282;2024-03-02T15:57:58;24.780000;;24.780000;23.280000;;;;;;
43196;SPS30;28816;49.852;18.282;2024-03-02T16:03:01;25.450000;;25.330000;23.680000;;;;;;
43196;SPS30;28816;49.852;18.282;2024-03-02T16:08:03;27.010000;;26.980000;25.470000;;;;;;
43196;SPS30;28816;49.852;18.282;2024-03-02T16:13:05;26.640000;;26.550000;25.270000;;;;;;
43196;SPS30;28816;49.852;18.282;2024-03-02T16:18:08;27.680000;;27.770000;26.030000;;;;;;
43196;SPS30;28816;49.852;18.282;2024-03-02T16:23:10;26.910000;;26.890000;25.300000;;;;;;
43196;SPS30;28816;49.852;18.282;2024-03-02T16:28:12;28.660000;;28.750000;26.950000;;;;;;
43196;SPS30;28816;49.852;18.282;2024-03-02T16:33:13;29.180000;;29.270000;27.470000;;;;;;
43196;SPS30;28816;49.852;18.282;2024-03-02T16:38:15;30.050000;;29.920000;28.460000;;;;;;
43196;SPS30;28816;49.852;18.282;2024-03-02T16:43:17;32.030000;;31.910000;30.170000;;;;;;
43196;SPS30;28816;49.852;18.282;2024-03-02T16:48:19;30.330000;;30.040000;28.430000;;;;;;
43196;SPS30;28816;49.852;18.282;2024-03-02T16:53:21;32.810000;;32.730000;31.090000;;;;;;
43196;SPS30;28816;49.852;18.282;2024-03-02T16:58:24;30.350000;;30.340000;28.590000;;;;;;
43196;SPS30;28816;49.852;18.282;2024-03-02T17:03:26;29.470000;;29.410000;27.400000;;;;;;
43196;SPS30;28816;49.852;18.282;2024-03-02T17:08:28;30.550000;;30.420000;28.600000;;;;;;
43196;SPS30;28816;49.852;18.282;2024-03-02T17:13:30;29.660000;;29.690000;28.040000;;;;;;
43196;SPS30;28816;49.852;18.282;2024-03-02T17:18:33;31.460000;;31.430000;29.610000;;;;;;
43196;SPS30;28816;49.852;18.282;2024-03-02T17:23:36;35.470000;;35.370000;33.330000;;;;;;
43196;SPS30;28816;49.852;18.282;2024-03-02T17:28:38;38.630000;;37.980000;35.340000;;;;;;
43196;SPS30;28816;49.852;18.282;2024-03-02T17:33:40;37.900000;;38.000000;35.380000;;;;;;
43196;SPS30;28816;49.852;18.282;2024-03-02T17:38:42;37.100000;;37.070000;34.800000;;;;;;
43196;SPS30;28816;49.852;18.282;2024-03-02T17:43:44;37.320000;;37.270000;34.970000;;;;;;
43196;SPS30;28816;49.852;18.282;2024-03-02T17:48:45;34.470000;;34.280000;32.590000;;;;;;
43196;SPS30;28816;49.852;18.282;2024-03-02T17:53:47;36.750000;;36.530000;34.960000;;;;;;
43196;SPS30;28816;49.852;18.282;2024-03-02T17:58:49;36.950000;;36.880000;34.850000;;;;;;
43196;SPS30;28816;49.852;18.282;2024-03-02T18:03:51;37.380000;;37.330000;34.900000;;;;;;
43196;SPS30;28816;49.852;18.282;2024-03-02T18:08:52;35.120000;;35.150000;33.020000;;;;;;
43196;SPS30;28816;49.852;18.282;2024-03-02T18:13:54;35.610000;;35.240000;33.600000;;;;;;
43196;SPS30;28816;49.852;18.282;2024-03-02T18:18:56;34.140000;;33.750000;31.830000;;;;;;
43196;SPS30;28816;49.852;18.282;2024-03-02T18:23:59;32.880000;;32.840000;31.090000;;;;;;
43196;SPS30;28816;49.852;18.282;2024-03-02T18:29:00;34.000000;;34.070000;31.860000;;;;;;
43196;SPS30;28816;49.852;18.282;2024-03-02T18:34:02;37.520000;;37.540000;35.420000;;;;;;
43196;SPS30;28816;49.852;18.282;2024-03-02T18:39:04;39.120000;;38.930000;36.440000;;;;;;
43196;SPS30;28816;49.852;18.282;2024-03-02T18:44:06;39.180000;;39.310000;36.940000;;;;;;
43196;SPS30;28816;49.852;18.282;2024-03-02T18:49:08;42.970000;;42.810000;40.200000;;;;;;
43196;SPS30;28816;49.852;18.282;2024-03-02T18:54:10;44.380000;;44.260000;41.270000;;;;;;
43196;SPS30;28816;49.852;18.282;2024-03-02T18:59:11;46.540000;;45.990000;43.280000;;;;;;
43196;SPS30;28816;49.852;18.282;2024-03-02T19:04:13;46.910000;;46.680000;43.920000;;;;;;
43196;SPS30;28816;49.852;18.282;2024-03-02T19:09:15;48.460000;;48.000000;44.980000;;;;;;
43196;SPS30;28816;49.852;18.282;2024-03-02T19:14:17;48.440000;;48.130000;45.330000;;;;;;
43196;SPS30;28816;49.852;18.282;2024-03-02T19:19:18;49.200000;;48.860000;46.140000;;;;;;
43196;SPS30;28816;49.852;18.282;2024-03-02T19:24:21;47.570000;;47.400000;44.580000;;;;;;
43196;SPS30;28816;49.852;18.282;2024-03-02T19:29:23;48.990000;;48.600000;46.190000;;;;;;
43196;SPS30;28816;49.852;18.282;2024-03-02T19:34:25;50.430000;;50.000000;47.080000;;;;;;
43196;SPS30;28816;49.852;18.282;2024-03-02T19:39:27;53.800000;;53.510000;49.980000;;;;;;
43196;SPS30;28816;49.852;18.282;2024-03-02T19:44:30;51.740000;;51.500000;48.030000;;;;;;
43196;SPS30;28816;49.852;18.282;2024-03-02T19:49:32;52.370000;;52.110000;49.040000;;;;;;
43196;SPS30;28816;49.852;18.282;2024-03-02T19:54:34;54.130000;;54.080000;51.160000;;;;;;
43196;SPS30;28816;49.852;18.282;2024-03-02T19:59:36;53.980000;;53.540000;50.360000;;;;;;
43196;SPS30;28816;49.852;18.282;2024-03-02T20:04:38;54.410000;;53.700000;50.230000;;;;;;
43196;SPS30;28816;49.852;18.282;2024-03-02T20:09:40;54.150000;;53.770000;50.080000;;;;;;
43196;SPS30;28816;49.852;18.282;2024-03-02T20:14:42;54.320000;;54.050000;50.780000;;;;;;
43196;SPS30;28816;49.852;18.282;2024-03-02T20:19:44;53.800000;;53.580000;50.170000;;;;;;
43196;SPS30;28816;49.852;18.282;2024-03-02T20:24:46;51.950000;;51.720000;48.840000;;;;;;
43196;SPS30;28816;49.852;18.282;2024-03-02T20:29:48;47.610000;;47.370000;44.320000;;;;;;
43196;SPS30;28816;49.852;18.282;2024-03-02T20:34:50;45.100000;;44.820000;42.560000;;;;;;
43196;SPS30;28816;49.852;18.282;2024-03-02T20:39:52;44.590000;;44.440000;41.750000;;;;;;
43196;SPS30;28816;49.852;18.282;2024-03-02T20:44:54;41.520000;;41.340000;39.310000;;;;;;
43196;SPS30;28816;49.852;18.282;2024-03-02T20:49:56;35.030000;;34.910000;32.840000;;;;;;
43196;SPS30;28816;49.852;18.282;2024-03-02T20:54:58;32.640000;;32.470000;30.370000;;;;;;
43196;SPS30;28816;49.852;18.282;2024-03-02T21:00:00;28.040000;;28.090000;26.220000;;;;;;
43196;SPS30;28816;49.852;18.282;2024-03-02T21:05:01;31.260000;;31.180000;28.960000;;;;;;
43196;SPS30;28816;49.852;18.282;2024-03-02T21:10:04;28.440000;;28.450000;26.800000;;;;;;
43196;SPS30;28816;49.852;18.282;2024-03-02T21:15:06;37.910000;;37.970000;35.220000;;;;;;
43196;SPS30;28816;49.852;18.282;2024-03-02T21:20:09;41.270000;;41.000000;38.780000;;;;;;
43196;SPS30;28816;49.852;18.282;2024-03-02T21:25:12;45.030000;;44.650000;41.970000;;;;;;
43196;SPS30;28816;49.852;18.282;2024-03-02T21:30:14;40.870000;;40.560000;37.830000;;;;;;
43196;SPS30;28816;49.852;18.282;2024-03-02T21:35:16;37.100000;;36.950000;35.090000;;;;;;
43196;SPS30;28816;49.852;18.282;2024-03-02T21:40:17;32.160000;;31.730000;30.360000;;;;;;
43196;SPS30;28816;49.852;18.282;2024-03-02T21:45:19;30.850000;;30.900000;29.100000;;;;;;
43196;SPS30;28816;49.852;18.282;2024-03-02T21:50:21;32.460000;;32.410000;30.640000;;;;;;
43196;SPS30;28816;49.852;18.282;2024-03-02T21:55:23;32.450000;;32.170000;30.350000;;;;;;
43196;SPS30;28816;49.852;18.282;2024-03-02T22:00:25;31.630000;;31.310000;29.360000;;;;;;
43196;SPS30;28816;49.852;18.282;2024-03-02T22:05:27;31.110000;;31.130000;29.350000;;;;;;
43196;SPS30;28816;49.852;18.282;2024-03-02T22:10:28;29.330000;;29.240000;27.780000;;;;;;
43196;SPS30;28816;49.852;18.282;2024-03-02T22:15:31;29.710000;;29.690000;27.880000;;;;;;
43196;SPS30;28816;49.852;18.282;2024-03-02T22:20:33;30.150000;;30.050000;28.410000;;;;;;
43196;SPS30;28816;49.852;18.282;2024-03-02T22:25:34;29.630000;;29.420000;27.570000;;;;;;
43196;SPS30;28816;49.852;18.282;2024-03-02T22:30:36;30.380000;;30.310000;28.170000;;;;;;
43196;SPS30;28816;49.852;18.282;2024-03-02T22:35:39;28.070000;;27.840000;26.390000;;;;;;
43196;SPS30;28816;49.852;18.282;2024-03-02T22:40:42;31.170000;;31.050000;29.240000;;;;;;
43196;SPS30;28816;49.852;18.282;2024-03-02T22:45:43;31.770000;;31.790000;29.900000;;;;;;